createdAt,value
2023-03-07T00:01:51.152Z,4.20
2023-03-07T00:06:55.750Z,4.17
2023-03-07T00:11:57.177Z,4.02
2023-03-07T00:16:58.556Z,3.99
2023-03-07T00:21:59.883Z,4.06
2023-03-07T00:27:01.294Z,4.01
2023-03-07T00:32:02.770Z,4.04
2023-03-07T00:37:04.159Z,3.78
2023-03-07T00:42:05.660Z,3.80
2023-03-07T00:47:07.474Z,3.75
2023-03-07T00:52:08.836Z,3.86
2023-03-07T00:57:10.271Z,3.65
2023-03-07T01:02:11.608Z,3.56
2023-03-07T01:07:12.998Z,3.62
2023-03-07T01:12:14.299Z,3.70
2023-03-07T01:17:15.652Z,3.66
2023-03-07T01:22:17.353Z,3.59
2023-03-07T01:27:19.329Z,3.72
2023-03-07T01:32:20.821Z,3.66
2023-03-07T01:37:22.450Z,3.58
2023-03-07T01:42:23.881Z,3.51
2023-03-07T01:47:25.200Z,3.48
2023-03-07T01:52:32.395Z,3.53
2023-03-07T01:57:36.988Z,3.32
2023-03-07T02:02:41.245Z,3.42
2023-03-07T02:07:47.831Z,3.47
2023-03-07T02:12:51.770Z,3.38
2023-03-07T02:17:54.045Z,3.31
2023-03-07T02:22:56.162Z,3.42
2023-03-07T02:27:59.132Z,3.35
2023-03-07T02:33:00.473Z,3.42
2023-03-07T02:38:04.624Z,3.45
2023-03-07T02:43:09.376Z,3.50
2023-03-07T02:48:10.784Z,3.43
2023-03-07T02:53:12.158Z,3.52
2023-03-07T02:58:13.467Z,3.71
2023-03-07T03:03:14.842Z,3.78
2023-03-07T03:08:16.140Z,3.75
2023-03-07T03:13:17.513Z,3.82
2023-03-07T03:18:19.274Z,3.71
2023-03-07T03:23:20.798Z,3.92
2023-03-07T03:28:22.773Z,3.87
2023-03-07T03:33:24.141Z,3.88
2023-03-07T03:38:26.494Z,3.89
2023-03-07T03:43:27.912Z,3.82
2023-03-07T03:48:29.613Z,3.84
2023-03-07T03:53:32.722Z,3.86
2023-03-07T03:58:34.972Z,3.82
2023-03-07T04:03:39.255Z,3.81
2023-03-07T04:08:41.637Z,3.82
2023-03-07T04:13:43.453Z,3.80
2023-03-07T04:18:44.971Z,3.91
2023-03-07T04:23:46.465Z,3.64
2023-03-07T04:28:49.358Z,3.94
2023-03-07T04:33:51.884Z,3.82
2023-03-07T04:38:53.258Z,3.83
2023-03-07T04:43:54.601Z,3.82
2023-03-07T04:48:56.002Z,3.79
2023-03-07T04:53:57.705Z,3.83
2023-03-07T04:58:59.118Z,3.88
2023-03-07T05:04:00.835Z,3.77
2023-03-07T05:09:02.665Z,3.85
2023-03-07T05:14:03.999Z,3.80
2023-03-07T05:19:06.265Z,3.97
2023-03-07T05:24:07.969Z,3.94
2023-03-07T05:29:09.349Z,3.87
2023-03-07T05:34:15.751Z,3.79
2023-03-07T05:39:17.177Z,4.00
2023-03-07T05:44:19.665Z,4.04
2023-03-07T05:49:21.147Z,4.08
2023-03-07T05:54:22.555Z,3.97
2023-03-07T05:59:23.983Z,4.04
2023-03-07T06:04:25.551Z,4.00
2023-03-07T06:09:28.120Z,4.20
2023-03-07T06:14:31.791Z,4.11
2023-03-07T06:19:34.039Z,4.22
2023-03-07T06:24:35.539Z,4.22
2023-03-07T06:29:37.677Z,4.25
2023-03-07T06:34:39.067Z,4.34
2023-03-07T06:39:40.611Z,4.07
2023-03-07T06:44:43.872Z,4.15
2023-03-07T06:49:45.351Z,4.14
2023-03-07T06:54:46.649Z,4.15
2023-03-07T06:59:48.057Z,4.09
2023-03-07T07:04:49.471Z,4.15
2023-03-07T07:09:51.046Z,4.21
2023-03-07T07:14:52.337Z,4.13
2023-03-07T07:19:53.674Z,4.30
2023-03-07T07:24:55.003Z,4.24
2023-03-07T07:29:56.324Z,4.18
2023-03-07T07:34:57.721Z,4.25
2023-03-07T07:39:59.033Z,4.29
2023-03-07T07:45:00.524Z,4.33
2023-03-07T07:50:01.869Z,4.38
2023-03-07T07:55:03.500Z,4.43
2023-03-07T08:00:05.885Z,4.43
2023-03-07T08:05:10.129Z,4.52
2023-03-07T08:10:16.110Z,4.58
2023-03-07T08:15:21.647Z,4.54
2023-03-07T08:20:25.486Z,4.63
2023-03-07T08:25:26.854Z,4.59
2023-03-07T08:30:30.034Z,4.86
2023-03-07T08:35:31.694Z,4.86
2023-03-07T08:40:33.264Z,4.89
2023-03-07T08:45:34.693Z,5.10
2023-03-07T08:50:36.408Z,5.36
2023-03-07T08:55:38.220Z,5.57
2023-03-07T09:00:39.986Z,5.64
2023-03-07T09:05:41.367Z,6.06
2023-03-07T09:10:42.807Z,6.23
2023-03-07T09:15:44.437Z,6.14
2023-03-07T09:20:45.873Z,6.42
2023-03-07T09:25:47.220Z,6.75
2023-03-07T09:30:48.514Z,6.98
2023-03-07T09:35:49.991Z,6.86
2023-03-07T09:40:52.750Z,6.80
2023-03-07T09:46:34.546Z,7.23
2023-03-07T09:51:41.526Z,7.12
2023-03-07T09:56:45.162Z,7.18
2023-03-07T10:01:46.647Z,7.28
2023-03-07T10:06:55.652Z,7.38
2023-03-07T10:12:12.370Z,7.32
2023-03-07T10:17:39.474Z,6.93
2023-03-07T10:22:53.478Z,6.87
2023-03-07T10:28:07.398Z,7.16
2023-03-07T10:33:18.814Z,7.05
2023-03-07T10:38:46.021Z,7.12
2023-03-07T10:43:49.812Z,7.10
2023-03-07T10:48:59.690Z,7.05
2023-03-07T10:54:01.274Z,6.98
2023-03-07T10:59:11.002Z,7.21
2023-03-07T11:04:23.894Z,7.15
2023-03-07T11:09:35.502Z,7.25
2023-03-07T11:14:54.018Z,7.40
2023-03-07T11:19:56.871Z,7.29
2023-03-07T11:25:13.736Z,7.41
2023-03-07T11:30:32.433Z,7.17
2023-03-07T11:36:05.496Z,7.39
2023-03-07T11:41:29.753Z,7.36
2023-03-07T11:46:37.484Z,7.23
2023-03-07T11:52:05.585Z,7.31
2023-03-07T11:57:50.748Z,7.31
2023-03-07T12:03:14.587Z,7.36
2023-03-07T12:08:33.905Z,7.37
2023-03-07T12:13:59.632Z,7.41
2023-03-07T12:19:28.121Z,7.42
2023-03-07T12:24:57.707Z,7.42
2023-03-07T12:30:23.071Z,7.56
2023-03-07T12:35:37.684Z,7.60
2023-03-07T12:40:47.136Z,7.65
2023-03-07T12:52:19.588Z,7.65
2023-03-07T12:57:34.370Z,7.65
2023-03-07T13:02:44.616Z,7.71
2023-03-07T13:07:47.798Z,7.72
2023-03-07T13:12:52.369Z,7.84
2023-03-07T13:17:53.786Z,7.97
2023-03-07T13:22:58.607Z,7.87
2023-03-07T13:28:00.958Z,7.87
2023-03-07T13:33:07.385Z,7.88
2023-03-07T13:38:24.006Z,7.84
2023-03-07T13:43:27.866Z,7.83
2023-03-07T13:48:29.947Z,7.86
2023-03-07T13:53:39.164Z,7.89
2023-03-07T13:59:01.032Z,7.82
2023-03-07T14:04:12.142Z,7.95
2023-03-07T14:09:26.556Z,8.00
2023-03-07T14:14:59.691Z,8.03
2023-03-07T14:20:13.114Z,8.30
2023-03-07T14:25:23.626Z,8.27
2023-03-07T14:30:30.107Z,8.04
2023-03-07T14:35:34.476Z,8.00
2023-03-07T14:40:46.872Z,7.92
2023-03-07T14:45:56.248Z,7.61
2023-03-07T14:51:05.541Z,7.67
2023-03-07T14:56:08.243Z,7.72
2023-03-07T15:01:16.008Z,7.55
2023-03-07T15:06:23.528Z,7.62
2023-03-07T15:11:34.232Z,7.69
2023-03-07T15:16:55.675Z,7.67
2023-03-07T15:22:01.477Z,7.66
2023-03-07T15:27:04.908Z,7.58
2023-03-07T15:32:07.269Z,7.50
2023-03-07T15:37:23.968Z,7.56
2023-03-07T15:42:25.899Z,7.62
2023-03-07T15:47:29.871Z,7.56
2023-03-07T15:52:34.333Z,7.53
2023-03-07T15:57:51.261Z,7.39
2023-03-07T16:02:53.626Z,7.38
2023-03-07T16:07:57.037Z,7.44
2023-03-07T16:13:00.303Z,7.47
2023-03-07T16:18:01.748Z,7.47
2023-03-07T16:23:03.150Z,7.44
2023-03-07T16:28:04.958Z,7.41
2023-03-07T16:33:06.427Z,7.42
2023-03-07T16:38:09.113Z,7.41
2023-03-07T16:43:28.105Z,7.30
2023-03-07T16:48:29.663Z,7.21
2023-03-07T16:53:31.360Z,7.13
2023-03-07T16:58:34.808Z,7.04
2023-03-07T17:03:36.235Z,7.07
2023-03-07T17:08:37.771Z,7.07
2023-03-07T17:13:39.135Z,7.00
2023-03-07T17:18:41.274Z,6.93
2023-03-07T17:23:44.928Z,6.96
2023-03-07T17:28:47.163Z,6.97
2023-03-07T17:33:49.689Z,6.89
2023-03-07T17:38:51.019Z,6.87
2023-03-07T17:43:52.416Z,6.86
2023-03-07T17:48:53.748Z,6.83
2023-03-07T17:53:55.183Z,6.83
2023-03-07T17:59:02.110Z,6.90
2023-03-07T18:04:06.377Z,6.87
2023-03-07T18:09:07.947Z,6.76
2023-03-07T18:14:10.529Z,6.84
2023-03-07T18:19:25.290Z,6.69
2023-03-07T18:24:30.035Z,6.73
2023-03-07T18:29:32.009Z,6.70
2023-03-07T18:34:33.343Z,6.76
2023-03-07T18:39:35.586Z,6.78
2023-03-07T18:44:41.213Z,6.76
2023-03-07T18:49:42.716Z,6.71
2023-03-07T18:54:44.835Z,6.71
2023-03-07T18:59:48.378Z,6.72
2023-03-07T19:04:50.606Z,6.81
2023-03-07T19:09:53.596Z,6.86
2023-03-07T19:14:54.978Z,6.80
2023-03-07T19:19:59.280Z,6.84
2023-03-07T19:25:00.784Z,6.86
2023-03-07T19:30:02.340Z,6.86
2023-03-07T19:35:04.905Z,6.77
2023-03-07T19:40:09.328Z,6.82
2023-03-07T19:45:11.171Z,6.85
2023-03-07T19:50:12.801Z,6.85
2023-03-07T19:55:14.609Z,6.92
2023-03-07T20:00:16.354Z,6.86
2023-03-07T20:05:18.006Z,6.87
2023-03-07T20:10:20.054Z,6.91
2023-03-07T20:15:21.757Z,7.00
2023-03-07T20:20:23.357Z,6.86
2023-03-07T20:25:29.563Z,6.92
2023-03-07T20:30:31.222Z,6.90
2023-03-07T20:35:32.884Z,6.86
2023-03-07T20:40:34.525Z,6.80
2023-03-07T20:45:36.420Z,6.87
2023-03-07T20:50:38.013Z,6.79
2023-03-07T20:55:39.734Z,6.43
2023-03-07T21:00:41.363Z,6.47
2023-03-07T21:05:42.955Z,6.39
2023-03-07T21:10:44.397Z,6.26
2023-03-07T21:15:52.766Z,6.46
2023-03-07T21:20:54.125Z,6.40
2023-03-07T21:26:03.697Z,6.30
2023-03-07T21:31:20.222Z,6.32
2023-03-07T21:36:23.476Z,5.97
2023-03-07T21:41:26.011Z,6.12
2023-03-07T21:46:27.710Z,6.08
2023-03-07T21:51:29.125Z,6.11
2023-03-07T21:56:30.752Z,6.15
2023-03-07T22:01:32.172Z,6.15
2023-03-07T22:06:33.546Z,6.27
2023-03-07T22:11:34.917Z,6.17
2023-03-07T22:16:36.367Z,6.12
2023-03-07T22:21:37.773Z,5.93
2023-03-07T22:26:39.280Z,5.85
2023-03-07T22:31:40.686Z,5.88
2023-03-07T22:36:42.073Z,5.80
2023-03-07T22:41:43.493Z,5.87
2023-03-07T22:46:45.682Z,5.86
2023-03-07T22:51:47.028Z,5.84
2023-03-07T22:56:48.658Z,5.85
2023-03-07T23:01:50.555Z,5.73
2023-03-07T23:06:52.059Z,5.79
2023-03-07T23:11:54.750Z,5.77
2023-03-07T23:16:56.116Z,5.75
2023-03-07T23:21:57.463Z,5.76
2023-03-07T23:26:58.829Z,5.68
2023-03-07T23:32:03.608Z,5.70
2023-03-07T23:37:05.409Z,5.64
2023-03-07T23:42:07.050Z,5.64
2023-03-07T23:47:08.385Z,5.68
2023-03-07T23:52:09.929Z,5.66
2023-03-07T23:57:11.306Z,5.64
